Terminal Aerodrome Forecast
Issued by NWS

Home | Current Version | Previous Version | Text Only | Print | Product List | Glossary On
Versions: 1 2 3 4 5 6 7 8 9 10 11 12 13 14 15
242
FTUS43 KFGF 312033 AAB
TAFTVF
TAF AMD
KTVF 312033Z 3121/0118 20015G23KT P6SM BKN045
     FM010200 15007KT P6SM VCSH BKN050
     FM010700 16007KT P6SM VCSH OVC025
     FM011000 22006KT P6SM VCSH OVC010
     FM011300 26008KT P6SM VCSH OVC003
     FM011500 27011KT P6SM VCSH OVC008
      AMD LTD TO CLD VIS AND WIND=

USA.gov is the U.S. government's official web portal to all federal, state and local government web resources and services.